sensor_id;sensor_type;location;lat;lon;timestamp;pressure;altitude;pressure_sealevel;temperature;humidity
7407;BME280;3745;56.964;24.128;2023-09-30T00:01:45;100920.88;;;16.08;100.00
7407;BME280;3745;56.964;24.128;2023-09-30T00:04:11;100998.88;;;16.54;100.00
7407;BME280;3745;56.964;24.128;2023-09-30T00:06:36;101026.88;;;16.69;100.00
7407;BME280;3745;56.964;24.128;2023-09-30T00:09:02;101187.25;;;17.57;100.00
7407;BME280;3745;56.964;24.128;2023-09-30T00:11:28;101109.22;;;17.05;100.00
7407;BME280;3745;56.964;24.128;2023-09-30T00:13:54;101192.38;;;17.54;100.00
7407;BME280;3745;56.964;24.128;2023-09-30T00:16:19;101104.09;;;17.05;100.00
7407;BME280;3745;56.964;24.128;2023-09-30T00:18:45;100944.66;;;16.10;100.00
7407;BME280;3745;56.964;24.128;2023-09-30T00:21:11;101109.22;;;17.05;100.00
7407;BME280;3745;56.964;24.128;2023-09-30T00:23:37;101029.53;;;16.57;100.00
7407;BME280;3745;56.964;24.128;2023-09-30T00:26:03;101077.03;;;16.86;100.00
7407;BME280;3745;56.964;24.128;2023-09-30T00:28:28;100958.31;;;16.06;100.00
7407;BME280;3745;56.964;24.128;2023-09-30T00:30:54;100926.06;;;15.96;100.00
7407;BME280;3745;56.964;24.128;2023-09-30T00:33:20;101024.44;;;16.54;100.00
7407;BME280;3745;56.964;24.128;2023-09-30T00:35:45;100938.72;;;16.09;100.00
7407;BME280;3745;56.964;24.128;2023-09-30T00:38:11;100929.34;;;16.10;100.00
7407;BME280;3745;56.964;24.128;2023-09-30T00:40:37;100926.06;;;15.96;100.00
7407;BME280;3745;56.964;24.128;2023-09-30T00:43:03;101006.53;;;16.51;100.00
7407;BME280;3745;56.964;24.128;2023-09-30T00:45:30;100971.81;;;16.26;100.00
7407;BME280;3745;56.964;24.128;2023-09-30T00:47:56;100959.91;;;16.22;100.00
7407;BME280;3745;56.964;24.128;2023-09-30T00:50:22;101024.41;;;16.57;100.00
7407;BME280;3745;56.964;24.128;2023-09-30T00:52:48;101031.13;;;16.67;100.00
7407;BME280;3745;56.964;24.128;2023-09-30T00:55:16;100884.41;;;15.85;100.00
7407;BME280;3745;56.964;24.128;2023-09-30T00:57:42;101138.00;;;17.29;100.00
7407;BME280;3745;56.964;24.128;2023-09-30T01:00:10;101009.09;;;16.54;100.00
7407;BME280;3745;56.964;24.128;2023-09-30T01:02:39;100963.25;;;16.33;100.00
7407;BME280;3745;56.964;24.128;2023-09-30T01:05:06;100841.22;;;15.60;100.00
7407;BME280;3745;56.964;24.128;2023-09-30T01:07:33;100912.34;;;16.06;100.00
7407;BME280;3745;56.964;24.128;2023-09-30T01:10:00;101032.72;;;16.80;100.00
7407;BME280;3745;56.964;24.128;2023-09-30T01:12:25;101120.94;;;17.33;100.00
7407;BME280;3745;56.964;24.128;2023-09-30T01:14:57;100871.63;;;15.91;100.00
7407;BME280;3745;56.964;24.128;2023-09-30T01:17:23;100929.22;;;16.28;100.00
7407;BME280;3745;56.964;24.128;2023-09-30T01:19:49;100907.13;;;16.24;100.00
7407;BME280;3745;56.964;24.128;2023-09-30T01:22:15;100859.69;;;15.96;100.00
7407;BME280;3745;56.964;24.128;2023-09-30T01:24:42;100846.13;;;15.85;100.00
7407;BME280;3745;56.964;24.128;2023-09-30T01:27:10;100951.19;;;16.47;100.00
7407;BME280;3745;56.964;24.128;2023-09-30T01:29:37;100996.13;;;16.77;100.00
7407;BME280;3745;56.964;24.128;2023-09-30T01:32:06;100869.84;;;16.02;100.00
7407;BME280;3745;56.964;24.128;2023-09-30T01:34:35;100934.25;;;16.39;100.00
7407;BME280;3745;56.964;24.128;2023-09-30T01:37:01;100846.94;;;15.93;100.00
7407;BME280;3745;56.964;24.128;2023-09-30T01:39:26;100996.97;;;16.77;100.00
7407;BME280;3745;56.964;24.128;2023-09-30T01:41:52;100910.47;;;16.29;100.00
7407;BME280;3745;56.964;24.128;2023-09-30T01:44:19;100926.59;;;16.39;100.00
7407;BME280;3745;56.964;24.128;2023-09-30T01:46:44;100992.72;;;16.73;100.00
7407;BME280;3745;56.964;24.128;2023-09-30T01:49:10;100990.19;;;16.73;100.00
7407;BME280;3745;56.964;24.128;2023-09-30T01:51:36;100910.53;;;16.23;100.00
7407;BME280;3745;56.964;24.128;2023-09-30T01:54:02;101051.28;;;17.04;100.00
7407;BME280;3745;56.964;24.128;2023-09-30T01:56:27;101008.94;;;16.75;100.00
7407;BME280;3745;56.964;24.128;2023-09-30T01:58:53;101003.78;;;16.78;100.00
7407;BME280;3745;56.964;24.128;2023-09-30T02:01:21;101098.75;;;17.33;100.00
7407;BME280;3745;56.964;24.128;2023-09-30T02:03:47;100868.16;;;15.98;100.00
7407;BME280;3745;56.964;24.128;2023-09-30T02:06:12;100969.88;;;16.58;100.00
7407;BME280;3745;56.964;24.128;2023-09-30T02:08:38;100890.09;;;16.23;100.00
7407;BME280;3745;56.964;24.128;2023-09-30T02:11:04;100844.31;;;16.02;100.00
7407;BME280;3745;56.964;24.128;2023-09-30T02:13:33;100954.41;;;16.70;100.00
7407;BME280;3745;56.964;24.128;2023-09-30T02:16:00;100856.13;;;16.12;100.00
7407;BME280;3745;56.964;24.128;2023-09-30T02:18:27;100873.19;;;16.10;100.00
7407;BME280;3745;56.964;24.128;2023-09-30T02:20:52;100924.81;;;16.48;100.00
7407;BME280;3745;56.964;24.128;2023-09-30T02:23:19;100913.75;;;16.43;100.00
7407;BME280;3745;56.964;24.128;2023-09-30T02:25:44;100901.88;;;16.39;100.00
7407;BME280;3745;56.964;24.128;2023-09-30T02:28:10;100890.03;;;16.32;100.00
7407;BME280;3745;56.964;24.128;2023-09-30T02:30:36;100904.38;;;16.47;100.00
7407;BME280;3745;56.964;24.128;2023-09-30T02:33:02;100830.75;;;15.95;100.00
7407;BME280;3745;56.964;24.128;2023-09-30T02:35:28;100866.28;;;16.21;100.00
7407;BME280;3745;56.964;24.128;2023-09-30T02:37:54;100849.38;;;16.08;100.00
7407;BME280;3745;56.964;24.128;2023-09-30T02:40:20;100930.72;;;16.50;100.00
7407;BME280;3745;56.964;24.128;2023-09-30T02:42:46;101000.25;;;16.90;100.00
7407;BME280;3745;56.964;24.128;2023-09-30T02:45:16;100930.69;;;16.59;100.00
7407;BME280;3745;56.964;24.128;2023-09-30T02:47:45;100849.41;;;16.05;100.00
7407;BME280;3745;56.964;24.128;2023-09-30T02:50:11;100919.78;;;16.36;100.00
7407;BME280;3745;56.964;24.128;2023-09-30T02:52:37;101002.06;;;16.82;100.00
7407;BME280;3745;56.964;24.128;2023-09-30T02:55:05;101040.22;;;16.99;100.00
7407;BME280;3745;56.964;24.128;2023-09-30T02:57:30;101030.16;;;16.80;100.00
7407;BME280;3745;56.964;24.128;2023-09-30T02:59:56;101070.03;;;17.03;100.00
7407;BME280;3745;56.964;24.128;2023-09-30T03:02:24;100986.97;;;16.47;100.00
7407;BME280;3745;56.964;24.128;2023-09-30T03:04:50;101056.63;;;16.79;100.00
7407;BME280;3745;56.964;24.128;2023-09-30T03:07:18;100887.84;;;15.82;100.00
7407;BME280;3745;56.964;24.128;2023-09-30T03:09:45;101032.81;;;16.68;100.00
7407;BME280;3745;56.964;24.128;2023-09-30T03:12:12;100941.28;;;16.11;100.00
7407;BME280;3745;56.964;24.128;2023-09-30T03:14:37;100978.63;;;16.27;100.00
7407;BME280;3745;56.964;24.128;2023-09-30T03:17:03;101056.63;;;16.73;100.00
7407;BME280;3745;56.964;24.128;2023-09-30T03:19:29;101037.09;;;16.69;100.00
7407;BME280;3745;56.964;24.128;2023-09-30T03:21:54;100809.03;;;15.32;100.00
7407;BME280;3745;56.964;24.128;2023-09-30T03:24:20;101044.72;;;16.75;100.00
7407;BME280;3745;56.964;24.128;2023-09-30T03:26:46;100803.91;;;15.35;100.00
7407;BME280;3745;56.964;24.128;2023-09-30T03:29:12;100952.19;;;16.28;100.00
7407;BME280;3745;56.964;24.128;2023-09-30T03:31:38;100931.84;;;16.20;100.00
7407;BME280;3745;56.964;24.128;2023-09-30T03:34:03;101017.47;;;16.71;100.00
7407;BME280;3745;56.964;24.128;2023-09-30T03:36:29;100793.69;;;15.38;100.00
7407;BME280;3745;56.964;24.128;2023-09-30T03:38:56;100941.09;;;16.32;100.00
7407;BME280;3745;56.964;24.128;2023-09-30T03:41:25;100948.75;;;16.34;100.00
7407;BME280;3745;56.964;24.128;2023-09-30T03:43:51;100797.06;;;15.46;100.00
7407;BME280;3745;56.964;24.128;2023-09-30T03:46:17;100846.16;;;15.82;100.00
7407;BME280;3745;56.964;24.128;2023-09-30T03:48:42;100822.53;;;15.58;100.00
7407;BME280;3745;56.964;24.128;2023-09-30T03:51:11;100881.81;;;15.94;100.00
7407;BME280;3745;56.964;24.128;2023-09-30T03:53:46;100875.00;;;15.96;100.00
7407;BME280;3745;56.964;24.128;2023-09-30T03:56:12;100815.69;;;15.60;100.00
7407;BME280;3745;56.964;24.128;2023-09-30T03:58:41;100918.97;;;16.31;100.00
7407;BME280;3745;56.964;24.128;2023-09-30T04:01:11;101005.47;;;16.83;100.00
7407;BME280;3745;56.964;24.128;2023-09-30T04:03:37;100861.34;;;16.01;100.00
7407;BME280;3745;56.964;24.128;2023-09-30T04:06:05;100759.66;;;15.45;100.00
7407;BME280;3745;56.964;24.128;2023-09-30T04:08:34;100979.06;;;16.79;100.00
7407;BME280;3745;56.964;24.128;2023-09-30T04:11:01;100760.50;;;15.52;100.00
7407;BME280;3745;56.964;24.128;2023-09-30T04:13:28;100908.72;;;16.36;100.00
7407;BME280;3745;56.964;24.128;2023-09-30T04:15:55;100778.34;;;15.52;100.00
7407;BME280;3745;56.964;24.128;2023-09-30T04:18:21;100982.47;;;16.76;100.00
7407;BME280;3745;56.964;24.128;2023-09-30T04:20:48;100832.50;;;15.89;100.00
7407;BME280;3745;56.964;24.128;2023-09-30T04:23:14;100973.09;;;16.78;100.00
7407;BME280;3745;56.964;24.128;2023-09-30T04:25:40;100981.56;;;16.84;100.00
7407;BME280;3745;56.964;24.128;2023-09-30T04:28:06;100979.00;;;16.85;100.00
7407;BME280;3745;56.964;24.128;2023-09-30T04:30:35;100973.09;;;16.82;100.00
7407;BME280;3745;56.964;24.128;2023-09-30T04:33:01;100744.34;;;15.45;100.00
7407;BME280;3745;56.964;24.128;2023-09-30T04:35:29;100740.97;;;15.49;100.00
7407;BME280;3745;56.964;24.128;2023-09-30T04:37:56;100842.47;;;16.16;100.00
7407;BME280;3745;56.964;24.128;2023-09-30T04:40:31;100807.78;;;15.95;100.00
7407;BME280;3745;56.964;24.128;2023-09-30T04:42:59;100716.31;;;15.50;100.00
7407;BME280;3745;56.964;24.128;2023-09-30T04:45:25;100850.84;;;16.33;100.00
7407;BME280;3745;56.964;24.128;2023-09-30T04:47:52;100808.56;;;16.02;100.00
7407;BME280;3745;56.964;24.128;2023-09-30T04:50:18;100811.09;;;16.05;100.00
7407;BME280;3745;56.964;24.128;2023-09-30T04:52:47;100787.38;;;15.92;100.00
7407;BME280;3745;56.964;24.128;2023-09-30T04:55:13;100736.63;;;15.59;100.00
7407;BME280;3745;56.964;24.128;2023-09-30T04:57:45;100751.03;;;15.67;100.00
7407;BME280;3745;56.964;24.128;2023-09-30T05:00:15;100762.81;;;15.81;100.00
7407;BME280;3745;56.964;24.128;2023-09-30T05:02:45;100756.00;;;15.83;100.00
7407;BME280;3745;56.964;24.128;2023-09-30T05:05:11;100816.88;;;16.25;100.00
7407;BME280;3745;56.964;24.128;2023-09-30T05:07:36;100746.63;;;15.83;100.00
7407;BME280;3745;56.964;24.128;2023-09-30T05:10:06;100877.00;;;16.64;100.00
7407;BME280;3745;56.964;24.128;2023-09-30T05:12:36;100971.88;;;17.16;100.00
7407;BME280;3745;56.964;24.128;2023-09-30T05:15:01;100886.25;;;16.72;100.00
7407;BME280;3745;56.964;24.128;2023-09-30T05:17:27;100964.19;;;17.19;100.00
7407;BME280;3745;56.964;24.128;2023-09-30T05:19:56;100872.63;;;16.70;100.00
7407;BME280;3745;56.964;24.128;2023-09-30T05:22:22;100804.09;;;16.26;100.00
7407;BME280;3745;56.964;24.128;2023-09-30T05:24:52;100723.66;;;15.82;100.00
7407;BME280;3745;56.964;24.128;2023-09-30T05:27:18;100876.03;;;16.72;100.00
7407;BME280;3745;56.964;24.128;2023-09-30T05:29:44;100826.97;;;16.37;100.00
7407;BME280;3745;56.964;24.128;2023-09-30T05:32:10;100808.38;;;16.23;100.00
7407;BME280;3745;56.964;24.128;2023-09-30T05:34:36;100903.25;;;16.79;100.00
7407;BME280;3745;56.964;24.128;2023-09-30T05:37:02;100974.41;;;17.19;100.00
7407;BME280;3745;56.964;24.128;2023-09-30T05:39:28;100828.69;;;16.35;100.00
7407;BME280;3745;56.964;24.128;2023-09-30T05:41:54;100889.69;;;16.68;100.00
7407;BME280;3745;56.964;24.128;2023-09-30T05:44:21;100805.88;;;16.17;100.00
7407;BME280;3745;56.964;24.128;2023-09-30T05:46:47;100813.38;;;16.35;100.00
7407;BME280;3745;56.964;24.128;2023-09-30T05:49:13;100894.72;;;16.77;100.00
7407;BME280;3745;56.964;24.128;2023-09-30T05:51:40;100801.56;;;16.22;100.00
7407;BME280;3745;56.964;24.128;2023-09-30T05:54:07;100741.53;;;15.82;100.00
7407;BME280;3745;56.964;24.128;2023-09-30T05:56:36;100973.41;;;17.29;100.00
7407;BME280;3745;56.964;24.128;2023-09-30T05:59:03;100887.88;;;16.83;100.00
7407;BME280;3745;56.964;24.128;2023-09-30T06:01:31;100730.41;;;15.89;100.00
7407;BME280;3745;56.964;24.128;2023-09-30T06:04:01;100875.97;;;16.78;100.00
7407;BME280;3745;56.964;24.128;2023-09-30T06:06:29;100817.44;;;16.53;100.00
7407;BME280;3745;56.964;24.128;2023-09-30T06:08:56;100761.63;;;16.16;100.00
7407;BME280;3745;56.964;24.128;2023-09-30T06:11:24;100862.34;;;16.79;100.00
7407;BME280;3745;56.964;24.128;2023-09-30T06:13:51;100777.59;;;16.34;100.00
7407;BME280;3745;56.964;24.128;2023-09-30T06:16:18;100935.94;;;17.28;100.00
7407;BME280;3745;56.964;24.128;2023-09-30T06:18:44;100913.16;;;17.07;100.00
7407;BME280;3745;56.964;24.128;2023-09-30T06:21:14;100711.75;;;15.82;100.00
7407;BME280;3745;56.964;24.128;2023-09-30T06:23:48;100713.44;;;15.82;100.00
7407;BME280;3745;56.964;24.128;2023-09-30T06:26:17;100862.38;;;16.73;100.00
7407;BME280;3745;56.964;24.128;2023-09-30T06:28:44;100874.16;;;16.87;100.00
7407;BME280;3745;56.964;24.128;2023-09-30T06:31:10;100801.28;;;16.49;100.00
7407;BME280;3745;56.964;24.128;2023-09-30T06:33:37;100940.00;;;17.41;100.00
7407;BME280;3745;56.964;24.128;2023-09-30T06:36:10;100714.94;;;16.04;100.00
7407;BME280;3745;56.964;24.128;2023-09-30T06:38:36;100949.34;;;17.47;100.00
7407;BME280;3745;56.964;24.128;2023-09-30T06:41:03;100938.28;;;17.43;100.00
7407;BME280;3745;56.964;24.128;2023-09-30T06:43:29;100867.16;;;17.04;100.00
7407;BME280;3745;56.964;24.128;2023-09-30T06:45:55;100749.44;;;16.41;100.00
7407;BME280;3745;56.964;24.128;2023-09-30T06:48:21;100731.63;;;16.35;100.00
7407;BME280;3745;56.964;24.128;2023-09-30T06:50:48;100802.66;;;16.80;100.00
7407;BME280;3745;56.964;24.128;2023-09-30T06:53:14;100864.31;;;17.28;100.00
7407;BME280;3745;56.964;24.128;2023-09-30T06:55:42;100756.91;;;16.59;100.00
7407;BME280;3745;56.964;24.128;2023-09-30T06:58:09;100834.66;;;17.12;100.00
7407;BME280;3745;56.964;24.128;2023-09-30T07:00:40;100725.59;;;16.41;100.00
7407;BME280;3745;56.964;24.128;2023-09-30T07:03:08;100824.59;;;17.00;100.00
7407;BME280;3745;56.964;24.128;2023-09-30T07:05:36;100782.28;;;16.74;100.00
7407;BME280;3745;56.964;24.128;2023-09-30T07:08:02;100695.88;;;16.35;100.00
7407;BME280;3745;56.964;24.128;2023-09-30T07:10:28;100733.03;;;16.63;100.00
7407;BME280;3745;56.964;24.128;2023-09-30T07:12:57;100793.78;;;17.09;100.00
7407;BME280;3745;56.964;24.128;2023-09-30T07:15:23;100856.28;;;17.55;100.00
7407;BME280;3745;56.964;24.128;2023-09-30T07:17:48;100842.72;;;17.47;100.00
7407;BME280;3745;56.964;24.128;2023-09-30T07:20:14;100741.28;;;16.84;100.00
7407;BME280;3745;56.964;24.128;2023-09-30T07:22:41;100718.31;;;16.80;100.00
7407;BME280;3745;56.964;24.128;2023-09-30T07:25:07;100839.22;;;17.51;100.00
7407;BME280;3745;56.964;24.128;2023-09-30T07:27:33;100910.31;;;17.94;100.00
7407;BME280;3745;56.964;24.128;2023-09-30T07:29:59;100746.25;;;16.93;100.00
7407;BME280;3745;56.964;24.128;2023-09-30T07:32:25;100763.22;;;17.00;100.00
7407;BME280;3745;56.964;24.128;2023-09-30T07:34:51;100828.31;;;17.39;100.00
7407;BME280;3745;56.964;24.128;2023-09-30T07:37:18;100903.66;;;17.83;100.00
7407;BME280;3745;56.964;24.128;2023-09-30T07:39:44;100841.16;;;17.37;100.00
7407;BME280;3745;56.964;24.128;2023-09-30T07:42:10;100793.75;;;17.12;100.00
7407;BME280;3745;56.964;24.128;2023-09-30T07:44:36;100920.56;;;17.94;100.00
7407;BME280;3745;56.964;24.128;2023-09-30T07:47:05;100923.81;;;18.05;100.00
7407;BME280;3745;56.964;24.128;2023-09-30T07:49:34;100800.22;;;17.37;100.00
7407;BME280;3745;56.964;24.128;2023-09-30T07:52:00;100855.75;;;17.88;100.00
7407;BME280;3745;56.964;24.128;2023-09-30T07:54:26;100722.91;;;17.17;100.00
7407;BME280;3745;56.964;24.128;2023-09-30T07:56:51;100698.63;;;16.89;100.00
7407;BME280;3745;56.964;24.128;2023-09-30T07:59:17;100930.19;;;18.33;100.00
7407;BME280;3745;56.964;24.128;2023-09-30T08:01:43;100701.75;;;17.06;100.00
7407;BME280;3745;56.964;24.128;2023-09-30T08:04:09;100677.13;;;17.00;100.00
7407;BME280;3745;56.964;24.128;2023-09-30T08:06:34;100692.16;;;17.20;100.00
7407;BME280;3745;56.964;24.128;2023-09-30T08:09:00;100769.81;;;17.74;100.00
7407;BME280;3745;56.964;24.128;2023-09-30T08:11:28;100872.13;;;18.30;100.00
7407;BME280;3745;56.964;24.128;2023-09-30T08:13:56;100764.69;;;17.72;100.00
7407;BME280;3745;56.964;24.128;2023-09-30T08:16:24;100853.59;;;18.18;100.00
7407;BME280;3745;56.964;24.128;2023-09-30T08:18:50;100788.94;;;18.04;100.00
7407;BME280;3745;56.964;24.128;2023-09-30T08:21:15;100932.88;;;18.77;100.00
7407;BME280;3745;56.964;24.128;2023-09-30T08:23:41;100845.53;;;18.39;100.00
7407;BME280;3745;56.964;24.128;2023-09-30T08:26:08;100807.63;;;18.09;100.00
7407;BME280;3745;56.964;24.128;2023-09-30T08:28:33;100686.63;;;17.46;100.00
7407;BME280;3745;56.964;24.128;2023-09-30T08:31:04;100768.59;;;17.95;100.00
7407;BME280;3745;56.964;24.128;2023-09-30T08:33:31;100840.69;;;18.22;100.00
7407;BME280;3745;56.964;24.128;2023-09-30T08:36:04;100797.72;;;17.87;100.00
7407;BME280;3745;56.964;24.128;2023-09-30T08:38:36;100929.50;;;18.75;100.00
7407;BME280;3745;56.964;24.128;2023-09-30T08:41:02;100856.84;;;18.26;100.00
7407;BME280;3745;56.964;24.128;2023-09-30T08:43:28;100845.63;;;18.33;100.00
7407;BME280;3745;56.964;24.128;2023-09-30T08:45:57;100755.03;;;17.90;100.00
7407;BME280;3745;56.964;24.128;2023-09-30T08:48:26;100746.84;;;17.69;100.00
7407;BME280;3745;56.964;24.128;2023-09-30T08:50:55;100767.06;;;17.84;100.00
7407;BME280;3745;56.964;24.128;2023-09-30T08:53:23;100838.06;;;18.27;100.00
7407;BME280;3745;56.964;24.128;2023-09-30T08:55:53;100743.66;;;17.55;100.00
7407;BME280;3745;56.964;24.128;2023-09-30T08:58:19;100790.94;;;17.86;100.00
7407;BME280;3745;56.964;24.128;2023-09-30T09:00:47;100728.66;;;17.31;100.00
7407;BME280;3745;56.964;24.128;2023-09-30T09:03:13;100785.38;;;17.60;100.00
7407;BME280;3745;56.964;24.128;2023-09-30T09:05:39;100798.28;;;17.51;100.00
7407;BME280;3745;56.964;24.128;2023-09-30T09:08:06;100796.75;;;17.40;100.00
7407;BME280;3745;56.964;24.128;2023-09-30T09:10:31;100795.22;;;17.28;100.00
7407;BME280;3745;56.964;24.128;2023-09-30T09:12:58;100959.94;;;17.86;100.00
7407;BME280;3745;56.964;24.128;2023-09-30T09:15:28;100765.44;;;16.58;100.00
7407;BME280;3745;56.964;24.128;2023-09-30T09:17:54;100772.31;;;16.50;100.00
7407;BME280;3745;56.964;24.128;2023-09-30T09:20:22;100877.41;;;17.04;100.00
7407;BME280;3745;56.964;24.128;2023-09-30T09:22:50;100945.28;;;17.29;100.00
7407;BME280;3745;56.964;24.128;2023-09-30T09:25:19;100826.75;;;16.58;100.00
7407;BME280;3745;56.964;24.128;2023-09-30T09:27:44;100758.22;;;16.17;100.00
7407;BME280;3745;56.964;24.128;2023-09-30T09:30:23;100994.47;;;17.55;100.00
7407;BME280;3745;56.964;24.128;2023-09-30T09:33:03;100936.16;;;17.08;100.00
7407;BME280;3745;56.964;24.128;2023-09-30T09:35:33;100804.84;;;16.36;100.00
7407;BME280;3745;56.964;24.128;2023-09-30T09:38:05;100831.91;;;16.55;100.00
7407;BME280;3745;56.964;24.128;2023-09-30T09:40:35;100864.03;;;16.77;100.00
7407;BME280;3745;56.964;24.128;2023-09-30T09:43:02;100871.59;;;16.87;100.00
7407;BME280;3745;56.964;24.128;2023-09-30T09:45:30;100814.88;;;16.57;100.00
7407;BME280;3745;56.964;24.128;2023-09-30T09:47:58;100936.63;;;17.39;100.00
7407;BME280;3745;56.964;24.128;2023-09-30T09:50:24;100882.38;;;17.16;100.00
7407;BME280;3745;56.964;24.128;2023-09-30T09:52:52;100933.06;;;17.52;100.00
7407;BME280;3745;56.964;24.128;2023-09-30T09:55:24;100804.44;;;16.75;100.00
7407;BME280;3745;56.964;24.128;2023-09-30T09:57:50;100777.41;;;16.56;100.00
7407;BME280;3745;56.964;24.128;2023-09-30T10:00:18;100779.88;;;16.64;100.00
7407;BME280;3745;56.964;24.128;2023-09-30T10:02:47;100999.03;;;17.98;100.00
7407;BME280;3745;56.964;24.128;2023-09-30T10:05:14;100910.03;;;17.51;100.00
7407;BME280;3745;56.964;24.128;2023-09-30T10:10:25;100817.63;;;17.11;100.00
7407;BME280;3745;56.964;24.128;2023-09-30T10:12:51;100771.13;;;16.80;100.00
7407;BME280;3745;56.964;24.128;2023-09-30T10:18:04;100865.50;;;17.00;100.00
7407;BME280;3745;56.964;24.128;2023-09-30T10:20:36;101008.78;;;17.70;100.00
7407;BME280;3745;56.964;24.128;2023-09-30T10:25:47;100925.81;;;17.17;100.00
7407;BME280;3745;56.964;24.128;2023-09-30T10:28:36;100996.84;;;17.70;100.00
7407;BME280;3745;56.964;24.128;2023-09-30T10:36:30;100955.47;;;17.32;100.00
7407;BME280;3745;56.964;24.128;2023-09-30T10:38:57;100838.59;;;16.68;100.00
7407;BME280;3745;56.964;24.128;2023-09-30T10:46:48;101023.03;;;17.91;100.00
7407;BME280;3745;56.964;24.128;2023-09-30T10:49:29;100950.16;;;17.50;100.00
7407;BME280;3745;56.964;24.128;2023-09-30T10:51:58;100875.66;;;17.06;100.00
7407;BME280;3745;56.964;24.128;2023-09-30T10:54:36;100932.31;;;17.44;100.00
7407;BME280;3745;56.964;24.128;2023-09-30T10:57:06;100760.47;;;16.43;100.00
7407;BME280;3745;56.964;24.128;2023-09-30T10:59:38;100921.31;;;17.36;100.00
7407;BME280;3745;56.964;24.128;2023-09-30T11:02:27;100917.94;;;17.34;100.00
7407;BME280;3745;56.964;24.128;2023-09-30T11:05:16;100956.06;;;17.57;100.00
7407;BME280;3745;56.964;24.128;2023-09-30T11:07:49;100929.75;;;17.44;100.00
7407;BME280;3745;56.964;24.128;2023-09-30T11:10:17;100943.28;;;17.55;100.00
7407;BME280;3745;56.964;24.128;2023-09-30T11:12:56;101032.97;;;18.15;100.00
7407;BME280;3745;56.964;24.128;2023-09-30T11:15:22;100910.28;;;17.34;100.00
7407;BME280;3745;56.964;24.128;2023-09-30T11:17:53;101043.13;;;18.19;100.00
7407;BME280;3745;56.964;24.128;2023-09-30T11:20:19;101048.25;;;18.21;100.00
7407;BME280;3745;56.964;24.128;2023-09-30T11:22:46;101040.56;;;18.21;100.00
7407;BME280;3745;56.964;24.128;2023-09-30T11:25:19;101044.72;;;18.28;100.00
7407;BME280;3745;56.964;24.128;2023-09-30T11:27:53;101049.81;;;18.31;100.00
7407;BME280;3745;56.964;24.128;2023-09-30T11:30:19;100819.59;;;16.91;100.00
7407;BME280;3745;56.964;24.128;2023-09-30T11:32:45;101043.13;;;18.21;100.00
7407;BME280;3745;56.964;24.128;2023-09-30T11:35:31;100899.97;;;17.39;100.00
7407;BME280;3745;56.964;24.128;2023-09-30T11:37:57;100871.34;;;17.08;100.00
7407;BME280;3745;56.964;24.128;2023-09-30T11:40:22;100953.25;;;17.76;100.00
7407;BME280;3745;56.964;24.128;2023-09-30T11:43:09;100933.75;;;17.66;100.00
7407;BME280;3745;56.964;24.128;2023-09-30T11:45:37;100922.81;;;17.51;100.00
7407;BME280;3745;56.964;24.128;2023-09-30T11:48:16;100824.75;;;16.88;100.00
7407;BME280;3745;56.964;24.128;2023-09-30T11:50:49;100885.69;;;17.21;100.00
7407;BME280;3745;56.964;24.128;2023-09-30T11:53:17;100991.47;;;17.90;100.00
7407;BME280;3745;56.964;24.128;2023-09-30T11:55:43;100995.75;;;17.90;100.00
7407;BME280;3745;56.964;24.128;2023-09-30T11:58:09;100963.41;;;17.82;100.00
7407;BME280;3745;56.964;24.128;2023-09-30T12:00:41;100938.81;;;17.71;100.00
7407;BME280;3745;56.964;24.128;2023-09-30T12:03:07;100986.97;;;18.06;100.00
7407;BME280;3745;56.964;24.128;2023-09-30T12:05:32;101081.69;;;18.71;100.00
7407;BME280;3745;56.964;24.128;2023-09-30T12:07:58;100970.59;;;18.17;100.00
7407;BME280;3745;56.964;24.128;2023-09-30T12:10:24;100907.06;;;17.82;100.00
7407;BME280;3745;56.964;24.128;2023-09-30T12:12:51;101008.66;;;18.40;100.00
7407;BME280;3745;56.964;24.128;2023-09-30T12:15:16;100940.22;;;17.92;100.00
7407;BME280;3745;56.964;24.128;2023-09-30T12:17:42;100854.84;;;17.33;100.00
7407;BME280;3745;56.964;24.128;2023-09-30T12:20:08;100861.78;;;17.25;100.00
7407;BME280;3745;56.964;24.128;2023-09-30T12:22:34;100923.75;;;17.47;100.00
7407;BME280;3745;56.964;24.128;2023-09-30T12:25:02;100892.56;;;17.19;100.00
7407;BME280;3745;56.964;24.128;2023-09-30T12:27:28;101011.00;;;17.99;100.00
7407;BME280;3745;56.964;24.128;2023-09-30T12:29:54;101100.06;;;18.41;100.00
7407;BME280;3745;56.964;24.128;2023-09-30T12:32:20;101103.47;;;18.41;100.00
7407;BME280;3745;56.964;24.128;2023-09-30T12:34:46;100959.50;;;17.53;100.00
7407;BME280;3745;56.964;24.128;2023-09-30T12:37:11;100902.78;;;17.19;100.00
7407;BME280;3745;56.964;24.128;2023-09-30T12:39:38;100978.94;;;17.70;100.00
7407;BME280;3745;56.964;24.128;2023-09-30T12:42:04;100948.50;;;17.46;100.00
7407;BME280;3745;56.964;24.128;2023-09-30T12:44:34;100982.50;;;17.54;100.00
7407;BME280;3745;56.964;24.128;2023-09-30T12:46:59;101006.31;;;17.65;100.00
7407;BME280;3745;56.964;24.128;2023-09-30T12:49:25;100859.97;;;16.60;100.00
7407;BME280;3745;56.964;24.128;2023-09-30T12:51:51;101116.72;;;18.10;100.00
7407;BME280;3745;56.964;24.128;2023-09-30T12:54:16;101040.38;;;17.70;100.00
7407;BME280;3745;56.964;24.128;2023-09-30T12:56:43;100860.91;;;16.54;100.00
7407;BME280;3745;56.964;24.128;2023-09-30T12:59:10;100932.16;;;16.85;100.00
7407;BME280;3745;56.964;24.128;2023-09-30T13:01:35;100983.00;;;17.12;100.00
7407;BME280;3745;56.964;24.128;2023-09-30T13:04:02;100849.09;;;16.38;100.00
7407;BME280;3745;56.964;24.128;2023-09-30T13:06:27;101013.41;;;17.39;100.00
7407;BME280;3745;56.964;24.128;2023-09-30T13:08:54;101021.88;;;17.44;100.00
7407;BME280;3745;56.964;24.128;2023-09-30T13:11:20;100963.53;;;16.99;100.00